sensor_id;sensor_type;location;lat;lon;timestamp;temperature;humidity
40600;DHT22;26309;50.924;4.754;2023-04-06T00:02:12;3.40;99.90
40600;DHT22;26309;50.924;4.754;2023-04-06T00:04:38;3.40;99.90
40600;DHT22;26309;50.924;4.754;2023-04-06T00:07:04;3.40;99.90
40600;DHT22;26309;50.924;4.754;2023-04-06T00:09:30;3.40;99.90
40600;DHT22;26309;50.924;4.754;2023-04-06T00:11:55;3.30;99.90
40600;DHT22;26309;50.924;4.754;2023-04-06T00:14:22;3.30;99.90
40600;DHT22;26309;50.924;4.754;2023-04-06T00:16:47;3.20;99.90
40600;DHT22;26309;50.924;4.754;2023-04-06T00:19:13;3.30;99.90
40600;DHT22;26309;50.924;4.754;2023-04-06T00:21:39;3.20;99.90
40600;DHT22;26309;50.924;4.754;2023-04-06T00:24:05;3.30;99.90
40600;DHT22;26309;50.924;4.754;2023-04-06T00:26:33;3.20;99.90
40600;DHT22;26309;50.924;4.754;2023-04-06T00:28:59;3.20;99.90
40600;DHT22;26309;50.924;4.754;2023-04-06T00:31:25;3.20;99.90
40600;DHT22;26309;50.924;4.754;2023-04-06T00:33:51;3.30;99.90
40600;DHT22;26309;50.924;4.754;2023-04-06T00:36:20;3.40;99.90
40600;DHT22;26309;50.924;4.754;2023-04-06T00:38:45;3.20;99.90
40600;DHT22;26309;50.924;4.754;2023-04-06T00:41:11;3.00;99.90
40600;DHT22;26309;50.924;4.754;2023-04-06T00:43:37;3.00;99.90
40600;DHT22;26309;50.924;4.754;2023-04-06T00:46:03;2.90;99.90
40600;DHT22;26309;50.924;4.754;2023-04-06T00:48:29;3.00;99.90
40600;DHT22;26309;50.924;4.754;2023-04-06T00:50:57;2.90;99.90
40600;DHT22;26309;50.924;4.754;2023-04-06T00:53:23;2.90;99.90
40600;DHT22;26309;50.924;4.754;2023-04-06T00:55:52;2.80;99.90
40600;DHT22;26309;50.924;4.754;2023-04-06T00:58:18;2.80;99.90
40600;DHT22;26309;50.924;4.754;2023-04-06T01:00:44;2.80;99.90
40600;DHT22;26309;50.924;4.754;2023-04-06T01:03:11;2.80;99.90
40600;DHT22;26309;50.924;4.754;2023-04-06T01:05:37;2.70;99.90
40600;DHT22;26309;50.924;4.754;2023-04-06T01:08:06;2.60;99.90
40600;DHT22;26309;50.924;4.754;2023-04-06T01:10:33;2.60;99.90
40600;DHT22;26309;50.924;4.754;2023-04-06T01:12:58;2.80;99.90
40600;DHT22;26309;50.924;4.754;2023-04-06T01:15:26;2.90;99.90
40600;DHT22;26309;50.924;4.754;2023-04-06T01:17:52;2.90;99.90
40600;DHT22;26309;50.924;4.754;2023-04-06T01:20:19;3.00;99.90
40600;DHT22;26309;50.924;4.754;2023-04-06T01:22:45;3.00;99.90
40600;DHT22;26309;50.924;4.754;2023-04-06T01:25:11;3.10;99.90
40600;DHT22;26309;50.924;4.754;2023-04-06T01:27:37;3.10;99.90
40600;DHT22;26309;50.924;4.754;2023-04-06T01:30:03;3.20;99.90
40600;DHT22;26309;50.924;4.754;2023-04-06T01:32:29;3.20;99.90
40600;DHT22;26309;50.924;4.754;2023-04-06T01:34:55;3.30;99.90
40600;DHT22;26309;50.924;4.754;2023-04-06T01:37:21;3.30;99.90
40600;DHT22;26309;50.924;4.754;2023-04-06T01:39:47;3.20;99.90
40600;DHT22;26309;50.924;4.754;2023-04-06T01:42:13;3.30;99.90
40600;DHT22;26309;50.924;4.754;2023-04-06T01:44:39;3.30;99.90
40600;DHT22;26309;50.924;4.754;2023-04-06T01:47:05;3.40;99.90
40600;DHT22;26309;50.924;4.754;2023-04-06T01:49:31;3.40;99.90
40600;DHT22;26309;50.924;4.754;2023-04-06T01:51:59;3.40;99.90
40600;DHT22;26309;50.924;4.754;2023-04-06T01:54:25;3.40;99.90
40600;DHT22;26309;50.924;4.754;2023-04-06T01:56:51;3.50;99.90
40600;DHT22;26309;50.924;4.754;2023-04-06T01:59:18;3.50;99.90
40600;DHT22;26309;50.924;4.754;2023-04-06T02:01:44;3.60;99.90
40600;DHT22;26309;50.924;4.754;2023-04-06T02:04:10;3.60;99.90
40600;DHT22;26309;50.924;4.754;2023-04-06T02:06:36;3.60;99.90
40600;DHT22;26309;50.924;4.754;2023-04-06T02:09:02;3.50;99.90
40600;DHT22;26309;50.924;4.754;2023-04-06T02:11:28;3.60;99.90
40600;DHT22;26309;50.924;4.754;2023-04-06T02:13:55;3.60;99.90
40600;DHT22;26309;50.924;4.754;2023-04-06T02:16:22;3.70;99.90
40600;DHT22;26309;50.924;4.754;2023-04-06T02:18:49;3.60;99.90
40600;DHT22;26309;50.924;4.754;2023-04-06T02:21:14;3.70;99.90
40600;DHT22;26309;50.924;4.754;2023-04-06T02:23:46;3.70;99.90
40600;DHT22;26309;50.924;4.754;2023-04-06T02:26:13;3.70;99.90
40600;DHT22;26309;50.924;4.754;2023-04-06T02:28:39;3.80;99.90
40600;DHT22;26309;50.924;4.754;2023-04-06T02:31:05;3.80;99.90
40600;DHT22;26309;50.924;4.754;2023-04-06T02:33:31;3.90;99.90
40600;DHT22;26309;50.924;4.754;2023-04-06T02:35:57;3.90;99.90
40600;DHT22;26309;50.924;4.754;2023-04-06T02:38:23;3.90;99.90
40600;DHT22;26309;50.924;4.754;2023-04-06T02:40:49;4.00;99.90
40600;DHT22;26309;50.924;4.754;2023-04-06T02:43:15;3.90;99.90
40600;DHT22;26309;50.924;4.754;2023-04-06T02:45:42;4.00;99.90
40600;DHT22;26309;50.924;4.754;2023-04-06T02:48:08;4.00;99.90
40600;DHT22;26309;50.924;4.754;2023-04-06T02:50:34;4.00;99.90
40600;DHT22;26309;50.924;4.754;2023-04-06T02:53:00;3.90;99.90
40600;DHT22;26309;50.924;4.754;2023-04-06T02:55:26;3.90;99.90
40600;DHT22;26309;50.924;4.754;2023-04-06T02:57:52;4.00;99.90
40600;DHT22;26309;50.924;4.754;2023-04-06T03:00:18;3.90;99.90
40600;DHT22;26309;50.924;4.754;2023-04-06T03:02:44;4.00;99.90
40600;DHT22;26309;50.924;4.754;2023-04-06T03:05:10;4.00;99.90
40600;DHT22;26309;50.924;4.754;2023-04-06T03:07:36;4.10;99.90
40600;DHT22;26309;50.924;4.754;2023-04-06T03:10:02;4.20;99.90
40600;DHT22;26309;50.924;4.754;2023-04-06T03:12:28;4.20;99.90
40600;DHT22;26309;50.924;4.754;2023-04-06T03:14:53;4.20;99.90
40600;DHT22;26309;50.924;4.754;2023-04-06T03:17:19;4.20;99.90
40600;DHT22;26309;50.924;4.754;2023-04-06T03:19:45;4.10;99.90
40600;DHT22;26309;50.924;4.754;2023-04-06T03:22:11;4.20;99.90
40600;DHT22;26309;50.924;4.754;2023-04-06T03:24:37;4.10;99.90
40600;DHT22;26309;50.924;4.754;2023-04-06T03:27:03;4.10;99.90
40600;DHT22;26309;50.924;4.754;2023-04-06T03:29:29;4.10;99.90
40600;DHT22;26309;50.924;4.754;2023-04-06T03:31:55;4.10;99.90
40600;DHT22;26309;50.924;4.754;2023-04-06T03:34:21;4.10;99.90
40600;DHT22;26309;50.924;4.754;2023-04-06T03:36:46;4.30;99.90
40600;DHT22;26309;50.924;4.754;2023-04-06T03:39:12;4.30;99.90
40600;DHT22;26309;50.924;4.754;2023-04-06T03:41:41;4.30;99.90
40600;DHT22;26309;50.924;4.754;2023-04-06T03:44:08;4.40;99.90
40600;DHT22;26309;50.924;4.754;2023-04-06T03:46:34;4.50;99.90
40600;DHT22;26309;50.924;4.754;2023-04-06T03:49:00;4.50;99.90
40600;DHT22;26309;50.924;4.754;2023-04-06T03:51:26;4.50;99.90
40600;DHT22;26309;50.924;4.754;2023-04-06T03:53:52;4.70;99.90
40600;DHT22;26309;50.924;4.754;2023-04-06T03:56:18;4.80;99.90
40600;DHT22;26309;50.924;4.754;2023-04-06T03:58:44;4.90;99.90
40600;DHT22;26309;50.924;4.754;2023-04-06T04:01:11;5.00;99.90
40600;DHT22;26309;50.924;4.754;2023-04-06T04:03:36;5.00;99.90
40600;DHT22;26309;50.924;4.754;2023-04-06T04:06:02;5.20;99.90
40600;DHT22;26309;50.924;4.754;2023-04-06T04:08:28;4.90;99.90
40600;DHT22;26309;50.924;4.754;2023-04-06T04:10:54;5.00;99.90
40600;DHT22;26309;50.924;4.754;2023-04-06T04:13:20;5.10;99.90
40600;DHT22;26309;50.924;4.754;2023-04-06T04:15:46;5.00;99.90
40600;DHT22;26309;50.924;4.754;2023-04-06T04:18:13;5.00;99.90
40600;DHT22;26309;50.924;4.754;2023-04-06T04:20:39;5.10;99.90
40600;DHT22;26309;50.924;4.754;2023-04-06T04:23:05;5.10;99.90
40600;DHT22;26309;50.924;4.754;2023-04-06T04:25:31;5.00;99.90
40600;DHT22;26309;50.924;4.754;2023-04-06T04:27:56;5.10;99.90
40600;DHT22;26309;50.924;4.754;2023-04-06T04:30:22;5.20;99.90
40600;DHT22;26309;50.924;4.754;2023-04-06T04:32:48;5.20;99.90
40600;DHT22;26309;50.924;4.754;2023-04-06T04:35:14;5.40;99.90
40600;DHT22;26309;50.924;4.754;2023-04-06T04:37:41;5.50;99.90
40600;DHT22;26309;50.924;4.754;2023-04-06T04:40:07;5.50;99.90
40600;DHT22;26309;50.924;4.754;2023-04-06T04:42:33;5.60;99.90
40600;DHT22;26309;50.924;4.754;2023-04-06T04:44:59;5.60;99.90
40600;DHT22;26309;50.924;4.754;2023-04-06T04:47:25;5.80;99.90
40600;DHT22;26309;50.924;4.754;2023-04-06T04:49:51;5.90;99.90
40600;DHT22;26309;50.924;4.754;2023-04-06T04:52:20;6.00;99.90
40600;DHT22;26309;50.924;4.754;2023-04-06T04:54:46;6.10;99.90
40600;DHT22;26309;50.924;4.754;2023-04-06T04:57:12;6.10;99.90
40600;DHT22;26309;50.924;4.754;2023-04-06T04:59:38;6.20;99.90
40600;DHT22;26309;50.924;4.754;2023-04-06T05:02:04;6.50;99.90
40600;DHT22;26309;50.924;4.754;2023-04-06T05:04:30;6.50;99.90
40600;DHT22;26309;50.924;4.754;2023-04-06T05:07:07;6.60;99.90
40600;DHT22;26309;50.924;4.754;2023-04-06T05:09:33;6.70;99.90
40600;DHT22;26309;50.924;4.754;2023-04-06T05:11:59;6.90;99.90
40600;DHT22;26309;50.924;4.754;2023-04-06T05:14:29;7.00;99.90
40600;DHT22;26309;50.924;4.754;2023-04-06T05:16:55;7.10;99.90
40600;DHT22;26309;50.924;4.754;2023-04-06T05:19:21;7.20;99.90
40600;DHT22;26309;50.924;4.754;2023-04-06T05:21:46;7.20;99.90
40600;DHT22;26309;50.924;4.754;2023-04-06T05:24:12;7.10;99.90
40600;DHT22;26309;50.924;4.754;2023-04-06T05:26:38;7.20;99.90
40600;DHT22;26309;50.924;4.754;2023-04-06T05:29:04;7.20;99.90
40600;DHT22;26309;50.924;4.754;2023-04-06T05:31:30;7.30;99.90
40600;DHT22;26309;50.924;4.754;2023-04-06T05:33:56;7.30;99.90
40600;DHT22;26309;50.924;4.754;2023-04-06T05:36:22;7.40;99.90
40600;DHT22;26309;50.924;4.754;2023-04-06T05:38:48;7.40;99.90
40600;DHT22;26309;50.924;4.754;2023-04-06T05:41:16;7.50;99.90
40600;DHT22;26309;50.924;4.754;2023-04-06T05:43:42;7.50;99.90
40600;DHT22;26309;50.924;4.754;2023-04-06T05:46:07;7.50;99.90
40600;DHT22;26309;50.924;4.754;2023-04-06T05:48:33;7.40;99.90
40600;DHT22;26309;50.924;4.754;2023-04-06T05:50:59;7.40;99.90
40600;DHT22;26309;50.924;4.754;2023-04-06T05:53:26;7.40;99.90
40600;DHT22;26309;50.924;4.754;2023-04-06T05:55:54;7.60;99.90
40600;DHT22;26309;50.924;4.754;2023-04-06T05:58:19;7.50;99.90
40600;DHT22;26309;50.924;4.754;2023-04-06T06:00:45;7.60;99.90
40600;DHT22;26309;50.924;4.754;2023-04-06T06:03:12;7.70;99.90
40600;DHT22;26309;50.924;4.754;2023-04-06T06:05:38;7.60;99.90
40600;DHT22;26309;50.924;4.754;2023-04-06T06:08:04;7.70;99.90
40600;DHT22;26309;50.924;4.754;2023-04-06T06:10:30;7.80;99.90
40600;DHT22;26309;50.924;4.754;2023-04-06T06:12:55;7.90;99.90
40600;DHT22;26309;50.924;4.754;2023-04-06T06:15:21;8.10;99.90
40600;DHT22;26309;50.924;4.754;2023-04-06T06:17:47;8.10;99.90
40600;DHT22;26309;50.924;4.754;2023-04-06T06:20:13;8.10;99.90
40600;DHT22;26309;50.924;4.754;2023-04-06T06:22:39;8.40;99.90
40600;DHT22;26309;50.924;4.754;2023-04-06T06:25:05;8.50;99.90
40600;DHT22;26309;50.924;4.754;2023-04-06T06:27:31;8.60;99.90
40600;DHT22;26309;50.924;4.754;2023-04-06T06:29:57;8.80;99.90
40600;DHT22;26309;50.924;4.754;2023-04-06T06:32:23;8.80;99.90
40600;DHT22;26309;50.924;4.754;2023-04-06T06:34:50;8.90;99.90
40600;DHT22;26309;50.924;4.754;2023-04-06T06:37:16;8.90;99.90
40600;DHT22;26309;50.924;4.754;2023-04-06T06:39:42;8.90;99.90
40600;DHT22;26309;50.924;4.754;2023-04-06T06:42:07;9.00;99.90
40600;DHT22;26309;50.924;4.754;2023-04-06T06:44:33;9.10;99.90
40600;DHT22;26309;50.924;4.754;2023-04-06T06:46:59;9.10;99.90
40600;DHT22;26309;50.924;4.754;2023-04-06T06:49:25;9.10;99.90
40600;DHT22;26309;50.924;4.754;2023-04-06T06:51:51;9.00;99.90
40600;DHT22;26309;50.924;4.754;2023-04-06T06:54:17;9.10;99.90
40600;DHT22;26309;50.924;4.754;2023-04-06T06:56:43;9.20;99.90
40600;DHT22;26309;50.924;4.754;2023-04-06T06:59:08;9.20;99.90
40600;DHT22;26309;50.924;4.754;2023-04-06T07:01:36;9.20;99.90
40600;DHT22;26309;50.924;4.754;2023-04-06T07:04:02;9.30;99.90
40600;DHT22;26309;50.924;4.754;2023-04-06T07:06:28;9.30;99.90
40600;DHT22;26309;50.924;4.754;2023-04-06T07:08:54;9.20;99.90
40600;DHT22;26309;50.924;4.754;2023-04-06T07:11:21;9.30;99.90
40600;DHT22;26309;50.924;4.754;2023-04-06T07:13:46;9.30;99.90
40600;DHT22;26309;50.924;4.754;2023-04-06T07:16:12;9.30;99.90
40600;DHT22;26309;50.924;4.754;2023-04-06T07:18:38;9.30;99.90
40600;DHT22;26309;50.924;4.754;2023-04-06T07:21:04;9.30;99.90
40600;DHT22;26309;50.924;4.754;2023-04-06T07:23:30;9.30;99.90
40600;DHT22;26309;50.924;4.754;2023-04-06T07:25:56;9.40;99.90
40600;DHT22;26309;50.924;4.754;2023-04-06T07:28:22;9.60;99.90
40600;DHT22;26309;50.924;4.754;2023-04-06T07:30:47;9.60;99.90
40600;DHT22;26309;50.924;4.754;2023-04-06T07:33:13;9.50;99.90
40600;DHT22;26309;50.924;4.754;2023-04-06T07:35:39;9.60;99.90
40600;DHT22;26309;50.924;4.754;2023-04-06T07:38:05;9.70;99.90
40600;DHT22;26309;50.924;4.754;2023-04-06T07:40:31;9.70;99.90
40600;DHT22;26309;50.924;4.754;2023-04-06T07:43:00;9.70;99.90
40600;DHT22;26309;50.924;4.754;2023-04-06T07:45:27;9.60;99.90
40600;DHT22;26309;50.924;4.754;2023-04-06T07:47:53;9.70;99.90
40600;DHT22;26309;50.924;4.754;2023-04-06T07:50:19;9.60;99.90
40600;DHT22;26309;50.924;4.754;2023-04-06T07:52:45;9.60;99.90
40600;DHT22;26309;50.924;4.754;2023-04-06T07:55:11;9.50;99.90
40600;DHT22;26309;50.924;4.754;2023-04-06T07:57:37;9.50;99.90
40600;DHT22;26309;50.924;4.754;2023-04-06T08:00:03;9.50;99.90
40600;DHT22;26309;50.924;4.754;2023-04-06T08:02:31;9.60;99.90
40600;DHT22;26309;50.924;4.754;2023-04-06T08:04:57;9.80;99.90
40600;DHT22;26309;50.924;4.754;2023-04-06T08:07:23;9.80;99.90
40600;DHT22;26309;50.924;4.754;2023-04-06T08:09:49;9.80;99.90
40600;DHT22;26309;50.924;4.754;2023-04-06T08:12:15;9.90;99.90
40600;DHT22;26309;50.924;4.754;2023-04-06T08:14:41;9.90;99.90
40600;DHT22;26309;50.924;4.754;2023-04-06T08:17:07;10.10;99.90
40600;DHT22;26309;50.924;4.754;2023-04-06T08:19:33;10.30;99.90
40600;DHT22;26309;50.924;4.754;2023-04-06T08:21:59;10.40;99.90
40600;DHT22;26309;50.924;4.754;2023-04-06T08:24:25;10.40;99.90
40600;DHT22;26309;50.924;4.754;2023-04-06T08:26:51;10.40;99.90
40600;DHT22;26309;50.924;4.754;2023-04-06T08:29:17;10.40;99.90
40600;DHT22;26309;50.924;4.754;2023-04-06T08:31:43;10.30;99.90
40600;DHT22;26309;50.924;4.754;2023-04-06T08:34:09;10.20;99.90
40600;DHT22;26309;50.924;4.754;2023-04-06T08:36:35;10.20;99.90
40600;DHT22;26309;50.924;4.754;2023-04-06T08:39:01;10.50;99.90
40600;DHT22;26309;50.924;4.754;2023-04-06T08:41:27;10.50;99.90
40600;DHT22;26309;50.924;4.754;2023-04-06T08:43:59;10.60;99.90
40600;DHT22;26309;50.924;4.754;2023-04-06T08:46:25;10.60;99.90
40600;DHT22;26309;50.924;4.754;2023-04-06T08:48:56;10.70;99.90
40600;DHT22;26309;50.924;4.754;2023-04-06T08:51:27;10.60;99.90
40600;DHT22;26309;50.924;4.754;2023-04-06T08:53:54;10.60;99.90
40600;DHT22;26309;50.924;4.754;2023-04-06T08:56:25;10.40;99.90
40600;DHT22;26309;50.924;4.754;2023-04-06T08:58:53;10.40;99.90
40600;DHT22;26309;50.924;4.754;2023-04-06T09:01:21;10.60;99.90
40600;DHT22;26309;50.924;4.754;2023-04-06T09:03:49;10.50;99.90
40600;DHT22;26309;50.924;4.754;2023-04-06T09:06:16;10.60;99.90
40600;DHT22;26309;50.924;4.754;2023-04-06T09:08:42;10.80;99.90
40600;DHT22;26309;50.924;4.754;2023-04-06T09:11:09;10.90;99.90
40600;DHT22;26309;50.924;4.754;2023-04-06T09:13:49;11.10;99.90
40600;DHT22;26309;50.924;4.754;2023-04-06T09:16:15;11.20;99.90
40600;DHT22;26309;50.924;4.754;2023-04-06T09:18:42;11.10;99.90
40600;DHT22;26309;50.924;4.754;2023-04-06T09:21:09;10.80;99.90
40600;DHT22;26309;50.924;4.754;2023-04-06T09:23:35;10.80;99.90
40600;DHT22;26309;50.924;4.754;2023-04-06T09:26:15;10.80;99.90
40600;DHT22;26309;50.924;4.754;2023-04-06T09:28:49;10.80;99.90
40600;DHT22;26309;50.924;4.754;2023-04-06T09:31:17;10.70;99.90
40600;DHT22;26309;50.924;4.754;2023-04-06T09:33:46;10.80;99.90
40600;DHT22;26309;50.924;4.754;2023-04-06T09:36:13;11.00;99.90
40600;DHT22;26309;50.924;4.754;2023-04-06T09:39:02;10.90;99.90
40600;DHT22;26309;50.924;4.754;2023-04-06T09:41:32;10.80;99.90
40600;DHT22;26309;50.924;4.754;2023-04-06T09:44:09;10.90;99.90
40600;DHT22;26309;50.924;4.754;2023-04-06T09:46:39;11.00;99.90
40600;DHT22;26309;50.924;4.754;2023-04-06T09:49:08;11.20;99.90
40600;DHT22;26309;50.924;4.754;2023-04-06T09:51:40;11.00;99.90
40600;DHT22;26309;50.924;4.754;2023-04-06T09:54:08;11.00;99.90
40600;DHT22;26309;50.924;4.754;2023-04-06T09:57:07;11.20;99.90
40600;DHT22;26309;50.924;4.754;2023-04-06T10:00:05;10.90;99.90
40600;DHT22;26309;50.924;4.754;2023-04-06T10:05:57;11.10;99.90
40600;DHT22;26309;50.924;4.754;2023-04-06T10:08:27;11.20;99.90
40600;DHT22;26309;50.924;4.754;2023-04-06T10:10:55;11.20;99.90
40600;DHT22;26309;50.924;4.754;2023-04-06T10:13:23;11.20;99.90
40600;DHT22;26309;50.924;4.754;2023-04-06T10:15:50;11.20;99.90
40600;DHT22;26309;50.924;4.754;2023-04-06T10:18:18;11.20;99.90
40600;DHT22;26309;50.924;4.754;2023-04-06T10:20:53;11.20;99.90
40600;DHT22;26309;50.924;4.754;2023-04-06T10:25:57;10.90;99.90
40600;DHT22;26309;50.924;4.754;2023-04-06T10:28:24;10.90;99.90
40600;DHT22;26309;50.924;4.754;2023-04-06T10:30:58;10.80;99.90
40600;DHT22;26309;50.924;4.754;2023-04-06T10:33:24;10.80;99.90
40600;DHT22;26309;50.924;4.754;2023-04-06T10:35:50;10.90;99.90
40600;DHT22;26309;50.924;4.754;2023-04-06T10:38:16;10.90;99.90
40600;DHT22;26309;50.924;4.754;2023-04-06T10:40:47;10.90;99.90
40600;DHT22;26309;50.924;4.754;2023-04-06T10:43:21;10.70;99.90
40600;DHT22;26309;50.924;4.754;2023-04-06T10:45:59;10.60;99.90
40600;DHT22;26309;50.924;4.754;2023-04-06T10:48:39;10.50;99.90
40600;DHT22;26309;50.924;4.754;2023-04-06T10:51:11;10.60;99.90
40600;DHT22;26309;50.924;4.754;2023-04-06T10:53:37;10.50;99.90
40600;DHT22;26309;50.924;4.754;2023-04-06T10:56:04;10.60;99.90
40600;DHT22;26309;50.924;4.754;2023-04-06T10:58:34;10.60;99.90
40600;DHT22;26309;50.924;4.754;2023-04-06T11:01:00;10.50;99.90
40600;DHT22;26309;50.924;4.754;2023-04-06T11:03:26;10.50;99.90
40600;DHT22;26309;50.924;4.754;2023-04-06T11:05:52;10.40;99.90
40600;DHT22;26309;50.924;4.754;2023-04-06T11:08:29;10.70;99.90
40600;DHT22;26309;50.924;4.754;2023-04-06T11:11:13;11.00;99.90
40600;DHT22;26309;50.924;4.754;2023-04-06T11:13:58;10.90;99.90
40600;DHT22;26309;50.924;4.754;2023-04-06T11:16:27;10.90;99.90
40600;DHT22;26309;50.924;4.754;2023-04-06T11:18:59;10.90;99.90
40600;DHT22;26309;50.924;4.754;2023-04-06T11:21:39;11.00;99.90
40600;DHT22;26309;50.924;4.754;2023-04-06T11:24:12;11.20;99.90
40600;DHT22;26309;50.924;4.754;2023-04-06T11:26:46;11.40;99.90
40600;DHT22;26309;50.924;4.754;2023-04-06T11:29:15;11.30;99.90
40600;DHT22;26309;50.924;4.754;2023-04-06T11:31:46;11.50;99.90
40600;DHT22;26309;50.924;4.754;2023-04-06T11:34:35;11.60;99.90
40600;DHT22;26309;50.924;4.754;2023-04-06T11:37:07;11.70;99.90
40600;DHT22;26309;50.924;4.754;2023-04-06T11:39:42;11.70;99.90
40600;DHT22;26309;50.924;4.754;2023-04-06T11:42:11;11.50;99.90
40600;DHT22;26309;50.924;4.754;2023-04-06T11:44:44;11.20;99.90
40600;DHT22;26309;50.924;4.754;2023-04-06T11:47:12;11.10;99.90
40600;DHT22;26309;50.924;4.754;2023-04-06T11:49:42;11.20;99.90
40600;DHT22;26309;50.924;4.754;2023-04-06T11:54:45;10.90;99.90
40600;DHT22;26309;50.924;4.754;2023-04-06T11:57:11;11.10;99.90
40600;DHT22;26309;50.924;4.754;2023-04-06T11:59:37;11.00;99.90
40600;DHT22;26309;50.924;4.754;2023-04-06T12:02:03;11.10;99.90
40600;DHT22;26309;50.924;4.754;2023-04-06T12:04:29;11.10;99.90
40600;DHT22;26309;50.924;4.754;2023-04-06T12:06:56;11.00;99.90
40600;DHT22;26309;50.924;4.754;2023-04-06T12:09:22;11.00;99.90
40600;DHT22;26309;50.924;4.754;2023-04-06T12:11:49;11.00;99.90
40600;DHT22;26309;50.924;4.754;2023-04-06T12:14:15;11.10;99.90
40600;DHT22;26309;50.924;4.754;2023-04-06T12:16:41;10.90;99.90
40600;DHT22;26309;50.924;4.754;2023-04-06T12:19:08;10.70;99.90
40600;DHT22;26309;50.924;4.754;2023-04-06T12:21:35;10.70;99.90
40600;DHT22;26309;50.924;4.754;2023-04-06T12:24:03;10.70;99.90
40600;DHT22;26309;50.924;4.754;2023-04-06T12:26:30;10.70;99.90
40600;DHT22;26309;50.924;4.754;2023-04-06T12:28:57;10.80;99.90
40600;DHT22;26309;50.924;4.754;2023-04-06T12:31:30;11.00;99.90
40600;DHT22;26309;50.924;4.754;2023-04-06T12:33:56;11.20;99.90
40600;DHT22;26309;50.924;4.754;2023-04-06T12:36:22;11.30;99.90
40600;DHT22;26309;50.924;4.754;2023-04-06T12:38:48;11.60;99.90
40600;DHT22;26309;50.924;4.754;2023-04-06T12:41:15;11.80;99.90
40600;DHT22;26309;50.924;4.754;2023-04-06T12:43:42;11.60;99.90
40600;DHT22;26309;50.924;4.754;2023-04-06T12:46:08;11.60;99.90
40600;DHT22;26309;50.924;4.754;2023-04-06T12:48:34;11.60;99.90
40600;DHT22;26309;50.924;4.754;2023-04-06T12:51:05;11.30;99.90
40600;DHT22;26309;50.924;4.754;2023-04-06T12:53:32;11.30;99.90
40600;DHT22;26309;50.924;4.754;2023-04-06T12:56:00;11.30;99.90
40600;DHT22;26309;50.924;4.754;2023-04-06T12:58:27;11.20;99.90
40600;DHT22;26309;50.924;4.754;2023-04-06T13:00:53;11.30;99.90
40600;DHT22;26309;50.924;4.754;2023-04-06T13:03:20;11.40;99.90
40600;DHT22;26309;50.924;4.754;2023-04-06T13:05:48;11.30;99.90
40600;DHT22;26309;50.924;4.754;2023-04-06T13:08:15;11.20;99.90
40600;DHT22;26309;50.924;4.754;2023-04-06T13:10:58;11.20;99.90
40600;DHT22;26309;50.924;4.754;2023-04-06T13:13:27;11.20;99.90
40600;DHT22;26309;50.924;4.754;2023-04-06T13:16:04;11.00;99.90
40600;DHT22;26309;50.924;4.754;2023-04-06T13:18:31;11.00;99.90
40600;DHT22;26309;50.924;4.754;2023-04-06T13:20:58;10.90;99.90
40600;DHT22;26309;50.924;4.754;2023-04-06T13:23:28;11.00;99.90
40600;DHT22;26309;50.924;4.754;2023-04-06T13:26:01;10.90;99.90
40600;DHT22;26309;50.924;4.754;2023-04-06T13:28:29;10.80;99.90
40600;DHT22;26309;50.924;4.754;2023-04-06T13:30:57;10.80;99.90
40600;DHT22;26309;50.924;4.754;2023-04-06T13:33:23;10.90;99.90
40600;DHT22;26309;50.924;4.754;2023-04-06T13:35:49;10.90;99.90
40600;DHT22;26309;50.924;4.754;2023-04-06T13:38:16;10.90;99.90
40600;DHT22;26309;50.924;4.754;2023-04-06T13:40:42;10.80;99.90
40600;DHT22;26309;50.924;4.754;2023-04-06T13:43:08;10.90;99.90
40600;DHT22;26309;50.924;4.754;2023-04-06T13:45:34;10.90;99.90
40600;DHT22;26309;50.924;4.754;2023-04-06T13:48:00;10.90;99.90
40600;DHT22;26309;50.924;4.754;2023-04-06T13:50:26;10.90;99.90
40600;DHT22;26309;50.924;4.754;2023-04-06T13:52:53;10.80;99.90
40600;DHT22;26309;50.924;4.754;2023-04-06T13:55:19;10.60;99.90
40600;DHT22;26309;50.924;4.754;2023-04-06T13:57:44;10.50;99.90
40600;DHT22;26309;50.924;4.754;2023-04-06T14:00:11;10.60;99.90
40600;DHT22;26309;50.924;4.754;2023-04-06T14:02:45;10.70;99.90
40600;DHT22;26309;50.924;4.754;2023-04-06T14:05:21;10.80;99.90
40600;DHT22;26309;50.924;4.754;2023-04-06T14:07:49;10.70;99.90
40600;DHT22;26309;50.924;4.754;2023-04-06T14:10:15;10.70;99.90
40600;DHT22;26309;50.924;4.754;2023-04-06T14:12:44;10.60;99.90
40600;DHT22;26309;50.924;4.754;2023-04-06T14:15:13;10.70;99.90
40600;DHT22;26309;50.924;4.754;2023-04-06T14:17:39;10.60;99.90
40600;DHT22;26309;50.924;4.754;2023-04-06T14:20:06;10.70;99.90
40600;DHT22;26309;50.924;4.754;2023-04-06T14:22:32;10.80;99.90
40600;DHT22;26309;50.924;4.754;2023-04-06T14:24:58;10.90;99.90
40600;DHT22;26309;50.924;4.754;2023-04-06T14:27:24;10.80;99.90
40600;DHT22;26309;50.924;4.754;2023-04-06T14:29:50;10.70;99.90
40600;DHT22;26309;50.924;4.754;2023-04-06T14:32:16;10.80;99.90
40600;DHT22;26309;50.924;4.754;2023-04-06T14:34:42;10.70;99.90
40600;DHT22;26309;50.924;4.754;2023-04-06T14:37:08;10.90;99.90
40600;DHT22;26309;50.924;4.754;2023-04-06T14:39:34;10.90;99.90
40600;DHT22;26309;50.924;4.754;2023-04-06T14:42:00;10.80;99.90
40600;DHT22;26309;50.924;4.754;2023-04-06T14:44:26;10.90;99.90
40600;DHT22;26309;50.924;4.754;2023-04-06T14:46:52;10.90;99.90
40600;DHT22;26309;50.924;4.754;2023-04-06T14:49:18;10.90;99.90
40600;DHT22;26309;50.924;4.754;2023-04-06T14:51:43;10.90;99.90
40600;DHT22;26309;50.924;4.754;2023-04-06T14:54:09;10.90;99.90
40600;DHT22;26309;50.924;4.754;2023-04-06T14:56:35;11.00;99.90
40600;DHT22;26309;50.924;4.754;2023-04-06T14:59:03;10.90;99.90
40600;DHT22;26309;50.924;4.754;2023-04-06T15:01:29;10.90;99.90
40600;DHT22;26309;50.924;4.754;2023-04-06T15:03:59;10.90;99.90
40600;DHT22;26309;50.924;4.754;2023-04-06T15:06:24;11.00;99.90
40600;DHT22;26309;50.924;4.754;2023-04-06T15:08:51;11.00;99.90
40600;DHT22;26309;50.924;4.754;2023-04-06T15:11:18;11.00;99.90
40600;DHT22;26309;50.924;4.754;2023-04-06T15:13:45;11.00;99.90
40600;DHT22;26309;50.924;4.754;2023-04-06T15:16:11;11.10;99.90
40600;DHT22;26309;50.924;4.754;2023-04-06T15:18:37;11.20;99.90
40600;DHT22;26309;50.924;4.754;2023-04-06T15:21:03;11.10;99.90
40600;DHT22;26309;50.924;4.754;2023-04-06T15:23:29;11.10;99.90
40600;DHT22;26309;50.924;4.754;2023-04-06T15:25:56;11.20;99.90
40600;DHT22;26309;50.924;4.754;2023-04-06T15:28:22;11.20;99.90
40600;DHT22;26309;50.924;4.754;2023-04-06T15:30:48;11.20;99.90
40600;DHT22;26309;50.924;4.754;2023-04-06T15:33:13;11.10;99.90
40600;DHT22;26309;50.924;4.754;2023-04-06T15:35:39;11.10;99.90
40600;DHT22;26309;50.924;4.754;2023-04-06T15:38:08;11.10;99.90
40600;DHT22;26309;50.924;4.754;2023-04-06T15:40:44;11.10;99.90
40600;DHT22;26309;50.924;4.754;2023-04-06T15:43:12;11.20;99.90
40600;DHT22;26309;50.924;4.754;2023-04-06T15:45:38;11.20;99.90
40600;DHT22;26309;50.924;4.754;2023-04-06T15:48:03;11.30;99.90
40600;DHT22;26309;50.924;4.754;2023-04-06T15:50:30;11.30;99.90